createdAt,value
2023-04-25T00:00:59.457Z,100844.25
2023-04-25T00:03:30.904Z,100845.53
2023-04-25T00:06:03.144Z,100844.31
2023-04-25T00:08:33.631Z,100843.16
2023-04-25T00:11:06.252Z,100847.19
2023-04-25T00:13:36.242Z,100845.38
2023-04-25T00:16:06.265Z,100840.28
2023-04-25T00:18:36.128Z,100844.78
2023-04-25T00:21:07.450Z,100844.78
2023-04-25T00:23:37.674Z,100842.97
2023-04-25T00:26:10.867Z,100850.78
2023-04-25T00:28:40.704Z,100852.50
2023-04-25T00:31:11.027Z,100855.19
2023-04-25T00:33:40.868Z,100852.56
2023-04-25T00:36:12.561Z,100850.63
2023-04-25T00:38:42.367Z,100858.56
2023-04-25T00:41:15.929Z,100860.22
2023-04-25T00:43:46.493Z,100858.38
2023-04-25T00:46:16.333Z,100854.97
2023-04-25T00:48:46.752Z,100864.78
2023-04-25T00:51:20.211Z,100863.00
2023-04-25T00:53:51.812Z,100858.38
2023-04-25T00:56:25.162Z,100862.63
2023-04-25T00:59:01.132Z,100862.53
2023-04-25T01:01:31.076Z,100857.28
2023-04-25T01:04:02.779Z,100860.75
2023-04-25T01:06:36.477Z,100852.13
2023-04-25T01:09:07.818Z,100860.75
2023-04-25T01:11:41.333Z,100864.31
2023-04-25T01:14:11.360Z,100860.03
2023-04-25T01:16:41.307Z,100862.78
2023-04-25T01:19:14.046Z,100856.59
2023-04-25T01:21:46.662Z,100852.44
2023-04-25T01:24:16.730Z,100854.22
2023-04-25T01:26:51.005Z,100862.06
2023-04-25T01:29:21.678Z,100873.53
2023-04-25T01:31:51.787Z,100864.09
2023-04-25T01:34:21.643Z,100863.94
2023-04-25T01:36:54.933Z,100872.50
2023-04-25T01:39:25.005Z,100873.41
2023-04-25T01:41:56.081Z,100875.81
2023-04-25T01:44:27.155Z,100878.53
2023-04-25T01:46:57.037Z,100878.31
2023-04-25T01:49:26.930Z,100877.34
2023-04-25T01:51:59.561Z,100877.84
2023-04-25T01:54:29.422Z,100887.25
2023-04-25T01:57:02.960Z,100892.31
2023-04-25T01:59:33.000Z,100895.34
2023-04-25T02:02:07.774Z,100898.59
2023-04-25T02:04:38.576Z,100898.38
2023-04-25T02:07:11.193Z,100903.69
2023-04-25T02:09:41.026Z,100900.88
2023-04-25T02:12:12.077Z,100907.00
2023-04-25T02:14:42.078Z,100905.28
2023-04-25T02:17:13.816Z,100903.22
2023-04-25T02:19:43.899Z,100909.13
2023-04-25T02:22:16.361Z,100900.44
2023-04-25T02:24:46.273Z,100909.41
2023-04-25T02:27:16.449Z,100904.16
2023-04-25T02:29:46.268Z,100899.09
2023-04-25T02:32:16.148Z,100901.00
2023-04-25T02:34:45.976Z,100901.97
2023-04-25T02:37:18.447Z,100908.06
2023-04-25T02:39:48.245Z,100899.22
2023-04-25T02:42:18.014Z,100904.47
2023-04-25T02:44:47.809Z,100903.63
2023-04-25T02:47:17.688Z,100898.13
2023-04-25T02:49:47.475Z,100901.50
2023-04-25T02:52:19.892Z,100897.81
2023-04-25T02:54:49.712Z,100910.78
2023-04-25T02:57:19.581Z,100909.75
2023-04-25T02:59:49.370Z,100916.56
2023-04-25T03:02:19.200Z,100913.94
2023-04-25T03:04:51.454Z,100916.56
2023-04-25T03:07:23.914Z,100913.06
2023-04-25T03:09:53.744Z,100912.31
2023-04-25T03:12:23.759Z,100910.66
2023-04-25T03:14:54.298Z,100915.88
2023-04-25T03:17:24.145Z,100914.69
2023-04-25T03:19:53.993Z,100921.53
2023-04-25T03:22:26.506Z,100918.22
2023-04-25T03:24:56.443Z,100910.22
2023-04-25T03:27:26.410Z,100915.88
2023-04-25T03:29:56.245Z,100923.81
2023-04-25T03:32:26.212Z,100921.00
2023-04-25T03:34:56.344Z,100924.28
2023-04-25T03:37:28.864Z,100925.78
2023-04-25T03:39:58.689Z,100926.63
2023-04-25T03:42:29.287Z,100929.06
2023-04-25T03:44:59.179Z,100927.31
2023-04-25T03:47:28.967Z,100921.97
2023-04-25T03:49:58.867Z,100932.41
2023-04-25T03:52:31.309Z,100931.28
2023-04-25T03:55:01.156Z,100939.88
2023-04-25T03:57:30.963Z,100946.84
2023-04-25T04:00:00.793Z,100946.78
2023-04-25T04:02:31.608Z,100950.13
2023-04-25T04:05:01.959Z,100951.56
2023-04-25T04:07:38.543Z,100947.06
2023-04-25T04:10:09.137Z,100949.06
2023-04-25T04:12:39.093Z,100957.00
2023-04-25T04:15:10.162Z,100959.50
2023-04-25T04:17:40.083Z,100955.88
2023-04-25T04:20:12.326Z,100960.25
2023-04-25T04:22:44.714Z,100962.09
2023-04-25T04:25:14.910Z,100968.44
2023-04-25T04:27:45.989Z,100965.97
2023-04-25T04:30:17.004Z,100969.66
2023-04-25T04:32:47.893Z,100979.44
2023-04-25T04:35:19.533Z,100980.25
2023-04-25T04:37:51.975Z,100984.00
2023-04-25T04:40:21.927Z,101010.47
2023-04-25T04:42:52.002Z,101018.03
2023-04-25T04:45:22.006Z,101008.72
2023-04-25T04:47:52.310Z,101010.41
2023-04-25T04:50:22.143Z,101002.69
2023-04-25T04:52:55.710Z,101006.34
2023-04-25T04:55:25.512Z,101003.00
2023-04-25T04:57:55.361Z,101002.19
2023-04-25T05:00:26.210Z,101004.13
2023-04-25T05:02:57.955Z,101010.34
2023-04-25T05:05:27.955Z,101014.19
2023-04-25T05:08:00.382Z,101010.97
2023-04-25T05:10:30.298Z,101018.41
2023-04-25T05:13:00.108Z,101018.22
2023-04-25T05:15:32.236Z,101024.03
2023-04-25T05:18:02.755Z,101025.19
2023-04-25T05:20:32.704Z,101030.50
2023-04-25T05:23:05.359Z,101034.69
2023-04-25T05:25:35.248Z,101027.53
2023-04-25T05:28:06.215Z,101028.31
2023-04-25T05:30:36.044Z,101036.03
2023-04-25T05:33:05.946Z,101046.59
2023-04-25T05:35:35.932Z,101049.81
2023-04-25T05:38:09.889Z,101056.94
2023-04-25T05:40:39.746Z,101051.56
2023-04-25T05:43:09.560Z,101057.44
2023-04-25T05:45:39.552Z,101049.03
2023-04-25T05:48:09.388Z,101047.56
2023-04-25T05:50:42.356Z,101051.22
2023-04-25T05:53:14.759Z,101049.63
2023-04-25T05:55:44.535Z,101047.25
2023-04-25T05:58:14.348Z,101053.59
2023-04-25T06:00:46.173Z,101051.59
2023-04-25T06:03:22.475Z,101056.97
2023-04-25T06:05:52.512Z,101056.03
2023-04-25T06:08:24.978Z,101060.63
2023-04-25T06:10:56.625Z,101054.66
2023-04-25T06:13:26.463Z,101064.47
2023-04-25T06:15:56.400Z,101063.72
2023-04-25T06:18:26.349Z,101065.56
2023-04-25T06:20:56.191Z,101077.31
2023-04-25T06:23:28.899Z,101089.19
2023-04-25T06:25:58.794Z,101089.59
2023-04-25T06:28:28.640Z,101089.88
2023-04-25T06:30:58.515Z,101088.19
2023-04-25T06:33:28.426Z,101090.34
2023-04-25T06:35:58.282Z,101089.25
2023-04-25T06:38:30.809Z,101092.66
2023-04-25T06:41:00.630Z,101109.19
2023-04-25T06:43:34.206Z,101109.19
2023-04-25T06:46:04.203Z,101102.00
2023-04-25T06:48:34.109Z,101100.34
2023-04-25T06:51:04.009Z,101102.22
2023-04-25T06:53:36.457Z,101104.03
2023-04-25T06:56:07.164Z,101106.84
2023-04-25T06:58:37.021Z,101120.09
2023-04-25T07:01:07.082Z,101114.72
2023-04-25T07:03:40.896Z,101112.44
2023-04-25T07:06:11.226Z,101109.41
2023-04-25T07:08:43.624Z,101112.69
2023-04-25T07:11:13.452Z,101117.41
2023-04-25T07:13:43.270Z,101124.47
2023-04-25T07:16:13.139Z,101118.25
2023-04-25T07:18:42.965Z,101135.41
2023-04-25T07:21:12.825Z,101122.91
2023-04-25T07:23:45.579Z,101129.97
2023-04-25T07:26:15.450Z,101128.22
2023-04-25T07:28:45.269Z,101119.38
2023-04-25T07:31:17.806Z,101130.00
2023-04-25T07:33:47.777Z,101130.41
2023-04-25T07:36:17.664Z,101140.88
2023-04-25T07:38:50.296Z,101140.25
2023-04-25T07:41:20.345Z,101138.88
2023-04-25T07:43:55.437Z,101133.66
2023-04-25T07:46:25.282Z,101174.91
2023-04-25T07:48:55.131Z,101183.63
2023-04-25T07:51:25.074Z,101184.66
2023-04-25T07:53:57.519Z,101191.28
2023-04-25T07:56:27.331Z,101179.31
2023-04-25T07:58:57.175Z,101169.22
2023-04-25T08:01:28.427Z,101181.44
2023-04-25T08:04:01.874Z,101181.81
2023-04-25T08:06:32.825Z,101181.63
2023-04-25T08:09:05.756Z,101186.06
2023-04-25T08:11:35.848Z,101189.09
2023-04-25T08:14:06.044Z,101188.72
2023-04-25T08:16:39.272Z,101198.56
2023-04-25T08:19:09.160Z,101202.44
2023-04-25T08:21:39.031Z,101193.28
2023-04-25T08:24:11.722Z,101194.09
2023-04-25T08:26:43.224Z,101198.06
2023-04-25T08:29:13.088Z,101202.09
2023-04-25T08:31:43.025Z,101207.09
2023-04-25T08:34:13.131Z,101198.63
2023-04-25T08:36:43.203Z,101206.69
2023-04-25T08:39:15.756Z,101210.31
2023-04-25T08:41:45.810Z,101219.94
2023-04-25T08:44:15.725Z,101230.81
2023-04-25T08:46:45.717Z,101216.16
2023-04-25T08:49:20.187Z,101228.34
2023-04-25T08:51:52.344Z,101225.72
2023-04-25T08:57:01.495Z,101221.19
2023-04-25T08:59:36.124Z,101239.03
2023-04-25T09:02:07.492Z,101237.38
2023-04-25T09:04:38.175Z,101243.94
2023-04-25T09:07:08.027Z,101235.53
2023-04-25T09:09:40.633Z,101253.13
2023-04-25T09:12:10.607Z,101258.66
2023-04-25T09:14:40.455Z,101256.69
2023-04-25T09:17:11.020Z,101255.50
2023-04-25T09:19:42.260Z,101259.59
2023-04-25T09:22:12.971Z,101266.72
2023-04-25T09:24:48.281Z,101261.53
2023-04-25T09:27:28.243Z,101276.84
2023-04-25T09:30:02.257Z,101277.34
2023-04-25T09:32:32.600Z,101280.78
2023-04-25T09:35:02.551Z,101279.13
2023-04-25T09:37:33.913Z,101266.16
2023-04-25T09:40:11.540Z,101284.09
2023-04-25T09:42:45.722Z,101292.19
2023-04-25T09:45:17.301Z,101282.50
2023-04-25T09:47:47.622Z,101314.13
2023-04-25T09:50:21.273Z,101311.50
2023-04-25T09:53:06.805Z,101308.91
2023-04-25T09:55:40.012Z,101312.91
2023-04-25T09:58:10.469Z,101321.69
2023-04-25T10:00:41.773Z,101316.81
2023-04-25T10:03:12.156Z,101319.94
2023-04-25T10:05:42.712Z,101320.63
2023-04-25T10:08:12.931Z,101327.06
2023-04-25T10:10:45.610Z,101313.50
2023-04-25T10:13:15.950Z,101323.44
2023-04-25T10:15:46.133Z,101318.94
2023-04-25T10:18:16.887Z,101333.31
2023-04-25T10:20:49.554Z,101339.22
2023-04-25T10:23:20.817Z,101344.94
2023-04-25T10:25:54.140Z,101331.53
2023-04-25T10:28:24.425Z,101338.31
2023-04-25T10:31:04.387Z,101345.09
2023-04-25T10:33:37.756Z,101338.88
2023-04-25T10:36:16.151Z,101337.22
2023-04-25T10:38:47.226Z,101343.81
2023-04-25T10:41:22.654Z,101349.84
2023-04-25T10:43:53.803Z,101350.28
2023-04-25T10:46:27.836Z,101351.66
2023-04-25T10:48:59.767Z,101359.88
2023-04-25T10:51:39.902Z,101359.88
2023-04-25T10:54:13.816Z,101345.66
2023-04-25T10:56:47.481Z,101353.44
2023-04-25T10:59:19.884Z,101348.41
2023-04-25T11:01:51.250Z,101355.09
2023-04-25T11:04:25.793Z,101355.88
2023-04-25T11:07:07.782Z,101352.28
2023-04-25T11:09:39.215Z,101365.66
2023-04-25T11:12:14.458Z,101367.59
2023-04-25T11:14:44.751Z,101364.41
2023-04-25T11:17:14.702Z,101364.44
2023-04-25T11:19:44.905Z,101370.75
2023-04-25T11:22:14.813Z,101362.09
2023-04-25T11:24:44.867Z,101379.56
2023-04-25T11:27:17.479Z,101372.63
2023-04-25T11:29:49.164Z,101369.22
2023-04-25T11:32:21.324Z,101373.00
2023-04-25T11:34:51.656Z,101373.25
2023-04-25T11:37:22.452Z,101369.97
2023-04-25T11:39:52.419Z,101368.47
2023-04-25T11:42:24.853Z,101376.81
2023-04-25T11:44:57.197Z,101383.06
2023-04-25T11:47:33.809Z,101375.94
2023-04-25T11:50:04.228Z,101392.34
2023-04-25T11:52:41.794Z,101390.69
2023-04-25T11:55:14.030Z,101391.56
2023-04-25T11:57:48.070Z,101385.13
2023-04-25T12:00:21.354Z,101390.28
2023-04-25T12:02:58.124Z,101402.69
2023-04-25T12:05:33.502Z,101398.31
2023-04-25T12:08:15.964Z,101401.63
2023-04-25T12:10:47.638Z,101404.06
2023-04-25T12:13:29.351Z,101410.84
2023-04-25T12:15:59.574Z,101409.88
2023-04-25T12:18:29.860Z,101411.53
2023-04-25T12:20:59.695Z,101402.88
2023-04-25T12:23:34.511Z,101409.34
2023-04-25T12:26:05.309Z,101416.72
2023-04-25T12:28:37.726Z,101421.41
2023-04-25T12:31:08.713Z,101412.91
2023-04-25T12:33:40.689Z,101422.81
2023-04-25T12:36:12.357Z,101424.03
2023-04-25T12:38:44.453Z,101423.09
2023-04-25T12:41:14.283Z,101420.13
2023-04-25T12:43:46.786Z,101436.25
2023-04-25T12:46:16.636Z,101438.03
2023-04-25T12:48:48.057Z,101437.78
2023-04-25T12:51:17.920Z,101428.72
2023-04-25T12:53:47.767Z,101441.81
2023-04-25T12:56:17.609Z,101446.88
2023-04-25T12:58:56.231Z,101450.41
2023-04-25T13:01:26.556Z,101445.91
2023-04-25T13:03:57.175Z,101448.34
2023-04-25T13:06:27.540Z,101447.13
2023-04-25T13:08:57.407Z,101454.88
2023-04-25T13:11:27.287Z,101438.25
2023-04-25T13:13:59.807Z,101437.59
2023-04-25T13:16:29.817Z,101444.78
2023-04-25T13:19:00.352Z,101444.78
2023-04-25T13:21:30.252Z,101458.75
2023-04-25T13:24:00.126Z,101452.63
2023-04-25T13:26:30.130Z,101450.84
2023-04-25T13:29:04.879Z,101459.50
2023-04-25T13:31:38.146Z,101456.88
2023-04-25T13:34:08.007Z,101456.88
2023-04-25T13:36:38.151Z,101454.34
2023-04-25T13:39:08.432Z,101453.94
2023-04-25T13:41:38.443Z,101458.16
2023-04-25T13:44:11.653Z,101460.28
2023-04-25T13:46:46.999Z,101457.88
2023-04-25T13:49:17.667Z,101466.63
2023-04-25T13:51:47.516Z,101463.03
2023-04-25T13:54:17.336Z,101464.91
2023-04-25T13:56:47.169Z,101464.81
2023-04-25T13:59:19.595Z,101461.38
2023-04-25T14:01:49.453Z,101474.66
2023-04-25T14:04:23.156Z,101460.75
2023-04-25T14:06:54.757Z,101476.41
2023-04-25T14:09:26.866Z,101472.69
2023-04-25T14:11:56.812Z,101479.28
2023-04-25T14:14:29.269Z,101471.19
2023-04-25T14:16:59.835Z,101479.75
2023-04-25T14:19:29.989Z,101488.78
2023-04-25T14:21:59.910Z,101503.16
2023-04-25T14:24:29.817Z,101499.97
2023-04-25T14:27:00.059Z,101502.16
2023-04-25T14:29:32.548Z,101493.84
2023-04-25T14:32:03.211Z,101483.41
2023-04-25T14:34:33.042Z,101488.03
2023-04-25T14:37:03.047Z,101486.50
2023-04-25T14:39:32.845Z,101499.72
2023-04-25T14:42:02.671Z,101500.88
2023-04-25T14:44:35.063Z,101509.25
2023-04-25T14:47:04.962Z,101505.91
2023-04-25T14:49:37.976Z,101506.25
2023-04-25T14:52:08.042Z,101504.34
2023-04-25T14:54:37.844Z,101511.69
2023-04-25T14:57:07.656Z,101513.81
2023-04-25T14:59:42.360Z,101518.16
2023-04-25T15:02:12.601Z,101514.66
2023-04-25T15:04:44.981Z,101522.81
2023-04-25T15:07:16.423Z,101516.03
2023-04-25T15:09:50.399Z,101524.75
2023-04-25T15:12:20.381Z,101517.84
2023-04-25T15:14:52.808Z,101519.72
2023-04-25T15:17:25.449Z,101534.81
2023-04-25T15:19:55.846Z,101531.03
2023-04-25T15:22:25.669Z,101529.13
2023-04-25T15:24:55.846Z,101525.53
2023-04-25T15:27:25.684Z,101531.03
2023-04-25T15:29:58.139Z,101531.59
2023-04-25T15:32:28.064Z,101534.03
2023-04-25T15:35:03.693Z,101521.50
2023-04-25T15:37:33.508Z,101539.88
2023-04-25T15:40:09.989Z,101538.56
2023-04-25T15:42:40.028Z,101550.59
2023-04-25T15:45:16.410Z,101540.63
2023-04-25T15:47:47.172Z,101527.28
2023-04-25T15:50:18.180Z,101534.81
2023-04-25T15:52:48.115Z,101535.22
2023-04-25T15:55:18.129Z,101539.38
2023-04-25T15:57:48.109Z,101530.72
2023-04-25T16:00:22.707Z,101544.00
2023-04-25T16:02:56.440Z,101546.09
2023-04-25T16:05:26.354Z,101546.22
2023-04-25T16:07:56.641Z,101543.69
2023-04-25T16:10:31.317Z,101539.44
2023-04-25T16:13:01.114Z,101548.63
2023-04-25T16:15:35.499Z,101544.75
2023-04-25T16:18:05.758Z,101543.78
2023-04-25T16:20:35.914Z,101545.22
2023-04-25T16:23:05.736Z,101556.78
2023-04-25T16:25:35.677Z,101549.59
2023-04-25T16:28:05.723Z,101541.34
2023-04-25T16:30:38.324Z,101550.88
2023-04-25T16:33:08.257Z,101536.69
2023-04-25T16:35:38.072Z,101560.47
2023-04-25T16:38:07.905Z,101563.28
2023-04-25T16:40:38.710Z,101561.31
2023-04-25T16:43:08.579Z,101572.97
2023-04-25T16:45:40.998Z,101580.63
2023-04-25T16:48:10.938Z,101578.38
2023-04-25T16:50:41.048Z,101568.94
2023-04-25T16:53:10.834Z,101571.13
2023-04-25T16:55:40.717Z,101572.31
2023-04-25T16:58:12.153Z,101566.53
2023-04-25T17:00:44.707Z,101571.38
2023-04-25T17:03:19.449Z,101576.63
2023-04-25T17:05:49.612Z,101582.94
2023-04-25T17:08:19.754Z,101572.00
2023-04-25T17:10:49.558Z,101576.50
2023-04-25T17:13:19.418Z,101583.63
2023-04-25T17:15:54.839Z,101588.81
2023-04-25T17:18:25.785Z,101579.00
2023-04-25T17:20:55.768Z,101577.25
2023-04-25T17:23:26.051Z,101586.28
2023-04-25T17:25:56.208Z,101582.81
2023-04-25T17:28:26.043Z,101582.00
2023-04-25T17:30:59.515Z,101581.16
2023-04-25T17:33:29.564Z,101587.16
2023-04-25T17:35:59.362Z,101579.94
2023-04-25T17:38:29.157Z,101583.31
2023-04-25T17:40:58.995Z,101583.69
2023-04-25T17:43:29.098Z,101587.28
2023-04-25T17:46:01.774Z,101582.78
2023-04-25T17:48:32.022Z,101587.88
2023-04-25T17:51:01.925Z,101592.09
2023-04-25T17:53:31.876Z,101590.28
2023-04-25T17:56:06.914Z,101589.22
2023-04-25T17:58:42.832Z,101596.72
2023-04-25T18:01:15.249Z,101593.09
2023-04-25T18:03:50.358Z,101609.44
2023-04-25T18:06:20.950Z,101606.41
2023-04-25T18:08:50.982Z,101615.81
2023-04-25T18:11:21.279Z,101608.63
2023-04-25T18:13:51.130Z,101618.13
2023-04-25T18:16:23.634Z,101615.41
2023-04-25T18:18:55.984Z,101615.34
2023-04-25T18:21:26.376Z,101611.06
2023-04-25T18:23:56.158Z,101617.56
2023-04-25T18:26:25.972Z,101613.03
2023-04-25T18:28:58.318Z,101622.63
2023-04-25T18:31:32.342Z,101634.88
2023-04-25T18:34:02.180Z,101624.38
2023-04-25T18:36:33.047Z,101624.19
2023-04-25T18:41:53.645Z,101625.84
2023-04-25T18:44:26.312Z,101627.78
2023-04-25T18:46:58.684Z,101633.78
2023-04-25T18:49:28.549Z,101640.59
2023-04-25T18:51:58.658Z,101639.75
2023-04-25T18:54:28.519Z,101637.03
2023-04-25T18:56:58.522Z,101644.91
2023-04-25T18:59:28.319Z,101642.47
2023-04-25T19:02:01.960Z,101652.16
2023-04-25T19:04:34.143Z,101649.47
2023-04-25T19:07:04.461Z,101652.25
2023-04-25T19:09:34.525Z,101653.63
2023-04-25T19:12:04.353Z,101659.50
2023-04-25T19:14:34.739Z,101656.09
2023-04-25T19:17:07.291Z,101658.59
2023-04-25T19:19:37.192Z,101668.09
2023-04-25T19:22:07.722Z,101675.09
2023-04-25T19:24:37.552Z,101681.31
2023-04-25T19:27:09.020Z,101677.44
2023-04-25T19:29:44.462Z,101667.53
2023-04-25T19:32:17.211Z,101670.81
2023-04-25T19:34:47.194Z,101664.75
2023-04-25T19:37:17.256Z,101672.63
2023-04-25T19:39:54.234Z,101665.59
2023-04-25T19:42:24.012Z,101670.09
2023-04-25T19:44:54.514Z,101661.97
2023-04-25T19:47:27.906Z,101671.56
2023-04-25T19:49:59.415Z,101678.59
2023-04-25T19:52:29.232Z,101672.50
2023-04-25T19:55:02.587Z,101680.38
2023-04-25T19:57:33.304Z,101682.03
2023-04-25T20:00:04.422Z,101683.56
2023-04-25T20:02:41.761Z,101672.09
2023-04-25T20:05:12.496Z,101677.19
2023-04-25T20:07:42.618Z,101682.25
2023-04-25T20:10:15.906Z,101677.75
2023-04-25T20:12:47.430Z,101680.28
2023-04-25T20:15:17.224Z,101678.28
2023-04-25T20:17:49.728Z,101680.91
2023-04-25T20:20:20.355Z,101670.41
2023-04-25T20:22:51.232Z,101686.78
2023-04-25T20:25:22.138Z,101678.81
2023-04-25T20:27:52.241Z,101679.75
2023-04-25T20:30:22.028Z,101677.91
2023-04-25T20:32:54.517Z,101682.16
2023-04-25T20:35:25.414Z,101681.38
2023-04-25T20:37:55.229Z,101688.22
2023-04-25T20:40:25.061Z,101682.09
2023-04-25T20:42:56.507Z,101683.00
2023-04-25T20:45:31.649Z,101682.09
2023-04-25T20:48:07.341Z,101678.59
2023-04-25T20:50:37.208Z,101675.75
2023-04-25T20:53:07.048Z,101678.31
2023-04-25T20:55:36.853Z,101672.97
2023-04-25T20:58:07.348Z,101674.59
2023-04-25T21:00:39.177Z,101673.81
2023-04-25T21:03:16.378Z,101681.00
2023-04-25T21:05:47.571Z,101671.44
2023-04-25T21:08:17.730Z,101668.91
2023-04-25T21:10:47.621Z,101672.25
2023-04-25T21:13:17.544Z,101670.34
2023-04-25T21:15:47.706Z,101672.72
2023-04-25T21:18:20.140Z,101669.66
2023-04-25T21:20:50.053Z,101672.94
2023-04-25T21:23:19.905Z,101677.25
2023-04-25T21:25:51.744Z,101682.41
2023-04-25T21:28:21.557Z,101679.44
2023-04-25T21:30:51.568Z,101669.69
2023-04-25T21:33:24.018Z,101679.09
2023-04-25T21:35:53.901Z,101677.19
2023-04-25T21:38:23.717Z,101682.44
2023-04-25T21:40:53.595Z,101681.44
2023-04-25T21:43:23.457Z,101681.34
2023-04-25T21:48:29.751Z,101679.72
2023-04-25T21:50:59.570Z,101685.06
2023-04-25T21:53:29.344Z,101678.03
2023-04-25T21:55:59.908Z,101683.16
2023-04-25T21:58:29.711Z,101675.13
2023-04-25T22:00:59.670Z,101682.00
2023-04-25T22:03:38.048Z,101682.88
2023-04-25T22:06:08.082Z,101684.69
2023-04-25T22:08:37.920Z,101682.06
2023-04-25T22:11:08.786Z,101678.53
2023-04-25T22:13:38.871Z,101689.75
2023-04-25T22:16:12.354Z,101689.84
2023-04-25T22:18:46.666Z,101687.94
2023-04-25T22:21:16.717Z,101700.16
2023-04-25T22:23:46.533Z,101709.97
2023-04-25T22:26:16.344Z,101699.16
2023-04-25T22:28:46.512Z,101695.44
2023-04-25T22:31:16.453Z,101695.91
2023-04-25T22:33:48.965Z,101697.41
2023-04-25T22:36:19.800Z,101698.25
2023-04-25T22:38:49.935Z,101689.75
2023-04-25T22:41:19.961Z,101687.22
2023-04-25T22:43:50.022Z,101696.25
2023-04-25T22:46:22.426Z,101700.16
2023-04-25T22:48:54.982Z,101699.50
2023-04-25T22:51:24.800Z,101705.72
2023-04-25T22:53:54.623Z,101698.78
2023-04-25T22:56:24.930Z,101696.25
2023-04-25T22:58:54.957Z,101696.09
2023-04-25T23:01:25.141Z,101697.69
2023-04-25T23:03:59.558Z,101705.38
2023-04-25T23:06:29.559Z,101711.59
2023-04-25T23:09:00.673Z,101706.19
2023-04-25T23:11:32.815Z,101710.63
2023-04-25T23:14:04.022Z,101715.84
2023-04-25T23:16:33.852Z,101711.41
2023-04-25T23:19:06.385Z,101714.84
2023-04-25T23:21:36.296Z,101706.19
2023-04-25T23:24:06.204Z,101714.84
2023-04-25T23:26:36.013Z,101712.13
2023-04-25T23:29:05.796Z,101703.22
2023-04-25T23:31:36.713Z,101713.41
2023-04-25T23:34:09.184Z,101710.44
2023-04-25T23:36:39.330Z,101714.66
2023-04-25T23:39:13.167Z,101708.44
2023-04-25T23:41:43.739Z,101716.19
2023-04-25T23:44:13.502Z,101718.81
2023-04-25T23:46:43.405Z,101709.25
2023-04-25T23:49:15.900Z,101710.16
2023-04-25T23:51:45.730Z,101711.06
2023-04-25T23:54:16.129Z,101726.94
2023-04-25T23:56:45.944Z,101717.38
2023-04-25T23:59:16.468Z,101721.69
